Bowdle, South Dakota
Current Conditions -  °F | °C
As of 3:52 AM on Saturday 29 Nov 2014 (Local Time) from KMBG Reporting Station
Clear Clear  
Wind Chill: 17°   Ceiling: Unl
Heat Index: 25°   Visibility: 10mi
Dew Point: 22°   Wind: 7mph
Humidity: 88%   Direction: 130°SE
Pressure: 29.35"   Gusts: NA
Location:  45.45°N, 99.65°W
Report Text: KMBG 290952Z AUTO 13006KT 10SM CLR M04/M06 A2935 RMK AO2 SLP958 T10391056
Loading
Personal Weather Stations






























Interactive Weather Map New forecast layout! Learn more

10-Day Weather Forecast

Advertisements
Track Severe Weather on mobile